Enter the Airport ICAO Code

Search by Airport or City

Current Weather

PAEN | Kenai Municipal Airport

Kenai, Alaska, United States

Last Update 32 Minutes Ago

Snow Fall, Fog

Temperature of 03 ºC Below Zero

Light to Moderate Winds from North

Temperature

03 ºC Below Zero

Dew Point Temperature

05 ºC Below Zero

Relative Humidity

85.99 %

Wind Direction

North (010º, Without Significant Variations)

Wind Velocity

13 km/h (07 kt)

Gusts

None

Visibility

Reduced to 1/2 Mile

Sea Level Pressure

29.78 inHg (Inches of Mercury)

Layers of Clouds

None

METAR PAEN 270222Z 01007KT 1/2SM SN FZFG VV014 M03/M05 A2978 RMK AO2 P0001 T10331050 $

Weather Forecast

PAEN | Kenai Municipal Airport

Kenai, Alaska, United States

Forecast valid for the next 21 Hours

From now on it is expected:

Light Snow Fall, Mist

Moderate Winds from North

In 12 hours it is expected the begining of:

Light Winds from Variable Directions

Maximum Temperature

No Data

Minimum Temperature

No Data

TAF PAEN 262340Z 2700/2724 02006KT 3SM BR OVC004 FM270200 01008KT P6SM -FZDZSN BKN007 OVC030 FM270300 01011KT 4SM -FZDZSN BR OVC007 FM271500 VRB04KT 2SM -FZDZSN BR SCT007 OVC015